createdAt,value
2022-08-01T00:02:44.940Z,17.76
2022-08-01T00:07:17.963Z,17.76
2022-08-01T00:16:10.081Z,17.71
2022-08-01T00:20:36.349Z,17.68
2022-08-01T00:25:09.418Z,17.65
2022-08-01T00:30:09.501Z,17.63
2022-08-01T00:34:30.119Z,17.61
2022-08-01T00:39:03.020Z,17.58
2022-08-01T00:43:35.822Z,17.53
2022-08-01T00:48:08.461Z,17.50
2022-08-01T00:52:21.409Z,17.49
2022-08-01T00:56:54.538Z,17.47
2022-08-01T01:01:19.953Z,17.45
2022-08-01T01:10:47.979Z,17.31
2022-08-01T01:15:20.725Z,17.18
2022-08-01T01:19:51.918Z,17.05
2022-08-01T01:25:15.471Z,16.98
2022-08-01T01:30:01.161Z,16.89
2022-08-01T01:34:47.136Z,16.79
2022-08-01T01:39:20.630Z,16.75
2022-08-01T01:43:41.361Z,16.76
2022-08-01T01:53:20.082Z,16.76
2022-08-01T01:57:53.237Z,16.74
2022-08-01T02:02:26.485Z,16.76
2022-08-01T02:07:00.025Z,16.77
2022-08-01T02:12:07.671Z,16.75
2022-08-01T02:16:41.284Z,16.72
2022-08-01T02:21:27.708Z,16.72
2022-08-01T02:26:12.795Z,16.69
2022-08-01T02:30:59.297Z,16.63
2022-08-01T02:35:24.764Z,16.60
2022-08-01T02:39:58.945Z,16.58
2022-08-01T02:44:45.381Z,16.56
2022-08-01T02:49:18.727Z,16.53
2022-08-01T02:53:44.210Z,16.47
2022-08-01T02:58:16.580Z,16.41
2022-08-01T03:02:59.009Z,16.42
2022-08-01T03:07:34.712Z,16.45
2022-08-01T03:12:13.560Z,16.47
2022-08-01T03:16:59.822Z,16.48
2022-08-01T03:21:44.758Z,16.50
2022-08-01T03:26:31.200Z,16.48
2022-08-01T03:30:57.721Z,16.46
2022-08-01T03:35:30.781Z,16.42
2022-08-01T03:40:17.660Z,16.40
2022-08-01T03:45:09.123Z,16.40
2022-08-01T03:54:46.949Z,16.43
2022-08-01T03:59:33.746Z,16.43
2022-08-01T04:04:20.224Z,16.46
2022-08-01T04:08:53.446Z,16.48
2022-08-01T04:13:29.251Z,16.51
2022-08-01T04:18:23.382Z,16.59
2022-08-01T04:23:10.060Z,16.68
2022-08-01T04:27:49.091Z,16.73
2022-08-01T04:32:37.185Z,16.78
2022-08-01T04:37:18.209Z,16.83
2022-08-01T04:42:04.795Z,16.87
2022-08-01T04:46:38.181Z,16.88
2022-08-01T04:51:19.343Z,16.92
2022-08-01T04:55:53.728Z,16.99
2022-08-01T05:00:17.679Z,17.11
2022-08-01T05:05:04.361Z,17.19
2022-08-01T05:09:37.287Z,17.27
2022-08-01T05:18:50.443Z,17.41
2022-08-01T05:23:36.540Z,17.44
2022-08-01T05:28:28.168Z,17.54
2022-08-01T05:32:56.524Z,17.71
2022-08-01T05:37:21.576Z,17.78
2022-08-01T05:42:06.583Z,17.92
2022-08-01T05:46:17.114Z,18.24
2022-08-01T05:52:02.361Z,19.05
2022-08-01T05:56:35.424Z,19.65
2022-08-01T06:00:59.568Z,19.81
2022-08-01T06:05:13.430Z,19.91
2022-08-01T06:09:26.104Z,19.92
2022-08-01T06:18:18.747Z,19.70
2022-08-01T06:22:45.511Z,19.72
2022-08-01T06:27:21.317Z,19.83
2022-08-01T06:31:38.039Z,20.08
2022-08-01T06:35:50.390Z,20.48
2022-08-01T06:40:17.549Z,21.01
2022-08-01T06:44:43.812Z,21.51
2022-08-01T06:48:51.478Z,21.96
2022-08-01T06:53:24.601Z,21.99
2022-08-01T06:57:27.408Z,22.19
2022-08-01T07:02:00.236Z,22.67
2022-08-01T07:06:33.590Z,22.94
2022-08-01T07:11:08.943Z,22.96
2022-08-01T07:15:41.887Z,22.77
2022-08-01T07:20:50.216Z,22.60
2022-08-01T07:25:39.656Z,22.42
2022-08-01T07:30:24.806Z,22.33
2022-08-01T07:35:01.840Z,22.37
2022-08-01T07:39:49.703Z,22.37
2022-08-01T07:44:23.079Z,22.48
2022-08-01T07:49:06.384Z,22.66
2022-08-01T07:54:06.468Z,22.93
2022-08-01T07:58:33.963Z,23.51
2022-08-01T08:03:07.576Z,24.14
2022-08-01T08:12:05.302Z,24.97
2022-08-01T08:16:33.532Z,25.26
2022-08-01T08:21:07.009Z,25.47
2022-08-01T08:25:53.683Z,25.62
2022-08-01T08:30:26.990Z,25.84
2022-08-01T08:35:06.784Z,26.02
2022-08-01T08:39:44.088Z,26.02
2022-08-01T08:44:17.220Z,26.04
2022-08-01T08:48:50.552Z,26.02
2022-08-01T08:53:18.610Z,26.12
2022-08-01T08:57:52.136Z,26.38
2022-08-01T09:02:24.921Z,26.37
2022-08-01T09:06:47.378Z,26.29
2022-08-01T09:11:12.441Z,26.43
2022-08-01T09:15:46.747Z,26.73
2022-08-01T09:20:20.951Z,27.12
2022-08-01T09:24:57.014Z,27.33
2022-08-01T09:29:40.948Z,27.59
2022-08-01T09:34:05.845Z,27.87
2022-08-01T09:38:25.712Z,28.13
2022-08-01T09:43:24.219Z,28.34
2022-08-01T09:47:56.081Z,28.68
2022-08-01T09:52:21.303Z,28.86
2022-08-01T09:56:52.732Z,29.07
2022-08-01T10:01:15.193Z,29.23
2022-08-01T10:05:46.787Z,29.25
2022-08-01T10:10:08.981Z,29.38
2022-08-01T10:14:57.393Z,29.55
2022-08-01T10:19:24.614Z,29.60
2022-08-01T10:23:48.846Z,29.61
2022-08-01T10:28:24.458Z,29.66
2022-08-01T10:32:50.934Z,29.72
2022-08-01T10:37:10.153Z,29.83
2022-08-01T10:41:56.611Z,29.86
2022-08-01T10:46:24.039Z,30.00
2022-08-01T10:51:18.035Z,30.02
2022-08-01T10:55:44.462Z,29.97
2022-08-01T11:00:18.870Z,29.98
2022-08-01T11:04:38.684Z,30.02
2022-08-01T11:09:11.986Z,29.94
2022-08-01T11:13:34.468Z,29.99
2022-08-01T11:18:12.535Z,30.08
2022-08-01T11:23:03.012Z,30.16
2022-08-01T11:27:11.926Z,30.17
2022-08-01T11:31:45.723Z,30.22
2022-08-01T11:35:55.534Z,30.22
2022-08-01T11:40:06.632Z,30.16
2022-08-01T11:44:30.614Z,30.14
2022-08-01T11:48:49.226Z,30.07
2022-08-01T11:53:26.870Z,29.90
2022-08-01T11:57:52.784Z,29.72
2022-08-01T12:01:41.256Z,29.62
2022-08-01T12:07:10.600Z,29.34
2022-08-01T12:11:32.546Z,29.46
2022-08-01T12:15:43.698Z,29.52
2022-08-01T12:20:19.620Z,29.37
2022-08-01T12:24:41.603Z,29.29
2022-08-01T12:28:06.797Z,29.09
2022-08-01T12:32:38.342Z,29.13
2022-08-01T12:38:03.307Z,29.28
2022-08-01T12:42:17.384Z,28.99
2022-08-01T12:48:02.645Z,28.99
2022-08-01T12:52:29.982Z,28.84
2022-08-01T12:57:02.948Z,28.72
2022-08-01T13:01:35.990Z,28.79
2022-08-01T13:06:00.628Z,28.61
2022-08-01T13:10:13.950Z,28.42
2022-08-01T13:15:58.941Z,28.33
2022-08-01T13:20:44.950Z,28.41
2022-08-01T13:25:27.548Z,28.29
2022-08-01T13:30:12.466Z,28.05
2022-08-01T13:34:58.678Z,27.98
2022-08-01T13:39:12.424Z,27.98
2022-08-01T13:43:25.105Z,27.96
2022-08-01T13:52:33.721Z,27.26
2022-08-01T13:56:48.841Z,27.35
2022-08-01T14:01:03.051Z,27.47
2022-08-01T14:05:47.010Z,27.41
2022-08-01T14:10:24.660Z,27.40
2022-08-01T14:14:42.082Z,27.42
2022-08-01T14:19:13.127Z,27.28
2022-08-01T14:23:38.964Z,26.87
2022-08-01T14:28:18.321Z,26.91
2022-08-01T14:32:56.340Z,26.97
2022-08-01T14:37:42.419Z,27.01
2022-08-01T14:42:15.921Z,26.89
2022-08-01T14:46:57.908Z,26.56
2022-08-01T14:51:45.157Z,26.54
2022-08-01T15:01:10.611Z,26.29
2022-08-01T15:05:40.774Z,26.09
2022-08-01T15:10:08.038Z,25.93
2022-08-01T15:14:53.423Z,25.65
2022-08-01T15:19:33.601Z,25.69
2022-08-01T15:24:03.303Z,25.67
2022-08-01T15:28:35.971Z,25.63
2022-08-01T15:33:08.632Z,25.44
2022-08-01T15:37:28.711Z,25.17
2022-08-01T15:42:03.020Z,24.88
2022-08-01T15:46:19.707Z,24.80
2022-08-01T15:50:45.052Z,24.80
2022-08-01T15:55:18.012Z,24.73
2022-08-01T15:59:59.278Z,24.63
2022-08-01T16:03:58.411Z,24.51
2022-08-01T16:08:30.908Z,24.27
2022-08-01T16:12:25.712Z,24.01
2022-08-01T16:16:59.039Z,23.96
2022-08-01T16:21:47.753Z,23.88
2022-08-01T16:26:26.994Z,23.66
2022-08-01T16:31:20.358Z,23.56
2022-08-01T16:41:03.599Z,23.30
2022-08-01T16:45:46.781Z,23.21
2022-08-01T16:50:27.950Z,23.19
2022-08-01T16:55:15.586Z,23.05
2022-08-01T16:59:48.891Z,22.95
2022-08-01T17:09:06.828Z,22.80
2022-08-01T17:13:25.934Z,22.70
2022-08-01T17:17:58.784Z,22.61
2022-08-01T17:22:32.184Z,22.51
2022-08-01T17:27:18.722Z,22.51
2022-08-01T17:31:52.051Z,22.49
2022-08-01T17:36:38.671Z,22.53
2022-08-01T17:41:23.380Z,22.47
2022-08-01T17:46:10.400Z,22.34
2022-08-01T17:50:42.939Z,22.26
2022-08-01T17:55:54.052Z,22.24
2022-08-01T18:00:04.242Z,22.19
2022-08-01T18:04:10.969Z,22.19
2022-08-01T18:09:01.826Z,22.20
2022-08-01T18:13:35.161Z,22.24
2022-08-01T18:18:08.711Z,22.29
2022-08-01T18:22:42.379Z,22.27
2022-08-01T18:28:22.406Z,22.25
2022-08-01T18:32:22.231Z,22.26
2022-08-01T18:36:42.931Z,22.27
2022-08-01T18:42:03.421Z,22.21
2022-08-01T18:51:16.515Z,22.08
2022-08-01T18:55:49.830Z,22.01
2022-08-01T19:00:22.492Z,21.95
2022-08-01T19:04:41.892Z,21.92
2022-08-01T19:09:03.486Z,21.88
2022-08-01T19:13:17.385Z,21.83
2022-08-01T19:17:50.804Z,21.74
2022-08-01T19:22:15.467Z,21.70
2022-08-01T19:26:46.804Z,21.67
2022-08-01T19:31:00.179Z,21.63
2022-08-01T19:35:26.815Z,21.57
2022-08-01T19:40:00.247Z,21.49
2022-08-01T19:44:08.620Z,21.44
2022-08-01T19:48:13.912Z,21.37
2022-08-01T19:52:50.891Z,21.24
2022-08-01T19:57:45.417Z,21.15
2022-08-01T20:02:13.540Z,21.04
2022-08-01T20:06:28.391Z,20.95
2022-08-01T20:10:42.852Z,20.85
2022-08-01T20:15:09.268Z,20.84
2022-08-01T20:19:41.332Z,20.86
2022-08-01T20:23:54.516Z,20.86
2022-08-01T20:28:16.863Z,20.83
2022-08-01T20:32:35.419Z,20.83
2022-08-01T20:37:06.809Z,20.67
2022-08-01T20:41:11.779Z,20.50
2022-08-01T20:45:24.524Z,20.36
2022-08-01T20:49:32.227Z,20.22
2022-08-01T20:53:37.506Z,20.11
2022-08-01T20:58:03.807Z,20.01
2022-08-01T21:02:19.091Z,19.93
2022-08-01T21:06:37.344Z,19.84
2022-08-01T21:10:52.144Z,19.77
2022-08-01T21:14:58.075Z,19.69
2022-08-01T21:19:19.514Z,19.61
2022-08-01T21:23:32.942Z,19.54
2022-08-01T21:28:05.902Z,19.49
2022-08-01T21:32:16.739Z,19.45
2022-08-01T21:36:25.627Z,19.43
2022-08-01T21:40:38.048Z,19.42
2022-08-01T21:44:50.072Z,19.42
2022-08-01T21:49:02.453Z,19.37
2022-08-01T21:53:15.661Z,19.34
2022-08-01T21:57:46.493Z,19.26
2022-08-01T22:02:45.610Z,19.17
2022-08-01T22:07:11.488Z,19.10
2022-08-01T22:11:23.507Z,19.03
2022-08-01T22:15:44.732Z,18.96
2022-08-01T22:19:58.124Z,18.91
2022-08-01T22:24:24.313Z,18.87
2022-08-01T22:28:50.680Z,18.82
2022-08-01T22:33:17.722Z,18.77
2022-08-01T22:37:57.434Z,18.75
2022-08-01T22:42:44.969Z,18.72
2022-08-01T22:46:55.243Z,18.69
2022-08-01T22:51:00.960Z,18.62
2022-08-01T22:55:13.722Z,18.57
2022-08-01T22:59:43.019Z,18.50
2022-08-01T23:03:55.741Z,18.40
2022-08-01T23:08:30.665Z,18.30
2022-08-01T23:13:16.862Z,18.22
2022-08-01T23:17:42.959Z,18.18
2022-08-01T23:22:05.389Z,18.14
2022-08-01T23:26:31.558Z,18.12
2022-08-01T23:31:05.130Z,18.11
2022-08-01T23:40:17.393Z,18.01
2022-08-01T23:44:51.492Z,17.98
2022-08-01T23:49:24.865Z,17.95
2022-08-01T23:53:47.881Z,17.93
